Time;durP1;ratioP1;P1;durP2;ratioP2;P2;SDS_P1;SDS_P2;PMS_P1;PMS_P2;Temp;Humidity;BMP_temperature;BMP_pressure;BME280_temperature;BME280_humidity;BME280_pressure;Samples;Min_cycle;Max_cycle;Signal;HPM_P1;HPM_P2
2021/04/25 00:01:08;;;;;;;8.02;5.10;;;;;;;8.85;63.32;98184.34;4973119;28;20035;-75
2021/04/25 00:03:33;;;;;;;11.50;6.18;;;;;;;8.90;63.16;98188.94;4972142;28;20026;-74
2021/04/25 00:05:59;;;;;;;12.40;5.47;;;;;;;8.63;64.14;98183.03;4971724;28;20125;-74
2021/04/25 00:08:24;;;;;;;9.35;5.25;;;;;;;8.58;64.41;98173.78;4971735;28;20177;-74
2021/04/25 00:10:50;;;;;;;8.02;5.15;;;;;;;8.81;63.40;98176.97;4972901;28;20093;-74
2021/04/25 00:13:16;;;;;;;10.48;5.45;;;;;;;8.76;63.75;98174.28;4973606;28;20030;-77
2021/04/25 00:15:41;;;;;;;9.10;5.05;;;;;;;8.72;64.09;98173.19;4973010;28;20076;-74
2021/04/25 00:18:07;;;;;;;11.32;5.03;;;;;;;8.74;64.24;98171.81;4972747;28;20105;-74
2021/04/25 00:20:32;;;;;;;10.70;6.75;;;;;;;8.59;64.92;98164.50;4977787;28;20067;-75
2021/04/25 00:22:57;;;;;;;9.18;5.50;;;;;;;8.41;66.00;98167.84;4980498;28;20110;-75
2021/04/25 00:25:23;;;;;;;;;;;;;;;8.36;66.76;98159.69;4977029;28;20053;-74
2021/04/25 00:27:48;;;;;;;7.03;5.00;;;;;;;8.48;66.12;98160.19;4971443;28;19914;-76
2021/04/25 00:30:17;;;;;;;8.95;5.53;;;;;;;8.44;66.61;98150.94;4971662;28;20508;-75
2021/04/25 00:32:43;;;;;;;7.47;4.75;;;;;;;8.57;66.29;98158.53;4972709;28;20031;-74
2021/04/25 00:35:10;;;;;;;9.18;4.95;;;;;;;8.60;66.16;98155.25;4972716;28;20023;-76
2021/04/25 00:37:35;;;;;;;13.70;5.70;;;;;;;8.64;65.93;98149.25;4971199;28;20048;-75
2021/04/25 00:40:00;;;;;;;9.68;5.40;;;;;;;8.51;66.64;98156.91;4972534;28;20368;-74
2021/04/25 00:42:27;;;;;;;8.27;5.25;;;;;;;8.23;67.78;98149.31;4973074;28;20103;-75
2021/04/25 00:44:54;;;;;;;11.70;5.22;;;;;;;8.46;67.18;98159.63;4972649;28;20027;-75
2021/04/25 00:47:19;;;;;;;10.23;5.47;;;;;;;8.40;67.20;98149.03;4972609;28;20383;-74
2021/04/25 00:49:44;;;;;;;8.02;5.85;;;;;;;8.46;66.95;98147.91;4971859;28;20021;-76
2021/04/25 00:52:10;;;;;;;10.05;6.38;;;;;;;8.33;67.49;98148.50;4973294;28;20407;-76
2021/04/25 00:54:38;;;;;;;6.40;4.50;;;;;;;8.24;67.75;98150.94;4973795;28;20034;-79
2021/04/25 00:57:05;;;;;;;8.63;5.60;;;;;;;8.25;67.48;98152.56;4986600;28;20026;-76
2021/04/25 00:59:31;;;;;;;6.90;5.20;;;;;;;8.31;67.65;98151.50;4990631;28;20112;-77
2021/04/25 01:01:56;;;;;;;9.02;5.68;;;;;;;8.37;67.20;98155.03;4974242;28;20489;-75
2021/04/25 01:04:21;;;;;;;11.23;6.32;;;;;;;8.24;67.57;98145.47;4972651;28;20037;-75
2021/04/25 01:06:47;;;;;;;11.77;5.63;;;;;;;8.15;67.75;98149.03;4972828;28;20035;-75
2021/04/25 01:09:13;;;;;;;8.48;5.18;;;;;;;8.25;67.66;98154.47;4971666;28;20027;-76
2021/04/25 01:11:39;;;;;;;10.20;4.85;;;;;;;8.22;67.61;98153.13;4972670;28;20391;-76
2021/04/25 01:14:04;;;;;;;7.53;5.50;;;;;;;8.13;67.89;98145.78;4972145;28;20109;-76
2021/04/25 01:16:30;;;;;;;12.88;5.20;;;;;;;8.13;68.33;98152.06;4979622;28;20026;-75
2021/04/25 01:18:55;;;;;;;8.48;5.18;;;;;;;8.11;68.76;98156.16;4981839;28;20045;-75
2021/04/25 01:21:21;;;;;;;9.52;5.72;;;;;;;8.03;68.75;98157.50;4972583;28;20470;-75
2021/04/25 01:23:47;;;;;;;10.82;5.05;;;;;;;8.10;68.95;98160.78;4970676;28;20053;-75
2021/04/25 01:26:12;;;;;;;10.73;6.10;;;;;;;8.02;68.45;98150.41;4971807;28;20400;-75
2021/04/25 01:28:38;;;;;;;11.57;5.07;;;;;;;8.12;68.15;98144.97;4972119;28;20034;-76
2021/04/25 01:31:04;;;;;;;13.35;5.97;;;;;;;8.11;68.18;98139.81;4972595;28;20109;-75
2021/04/25 01:33:30;;;;;;;14.48;6.15;;;;;;;8.13;68.22;98134.88;4980335;28;20112;-75
2021/04/25 01:35:55;;;;;;;7.57;4.90;;;;;;;8.04;68.26;98135.47;4980935;28;20498;-75
2021/04/25 01:38:21;;;;;;;7.55;5.00;;;;;;;8.06;68.24;98133.25;4972222;28;20030;-76
2021/04/25 01:40:47;;;;;;;14.70;6.65;;;;;;;7.84;69.01;98126.47;4971894;28;20031;-76
2021/04/25 01:43:12;;;;;;;;;;;;;;;7.82;69.01;98139.56;4971722;28;20039;-75
2021/04/25 01:45:38;;;;;;;12.52;6.30;;;;;;;7.72;69.45;98117.75;4972165;28;20293;-74
2021/04/25 01:48:06;;;;;;;8.77;5.75;;;;;;;7.63;70.04;98127.56;4971923;28;20038;-75
2021/04/25 01:50:33;;;;;;;11.98;6.30;;;;;;;7.63;70.06;98122.94;4970790;28;20027;-76
2021/04/25 01:52:59;;;;;;;12.05;5.63;;;;;;;7.78;69.53;98124.84;4970403;28;20058;-75
2021/04/25 01:55:27;;;;;;;13.98;5.97;;;;;;;7.67;69.72;98117.78;4971298;28;20448;-77
2021/04/25 01:57:53;;;;;;;9.23;5.78;;;;;;;7.69;69.94;98121.84;4970736;28;20033;-75
2021/04/25 02:00:26;;;;;;;18.25;5.70;;;;;;;7.75;69.76;98122.66;4971816;28;20026;-76
2021/04/25 02:02:54;;;;;;;15.70;7.30;;;;;;;7.60;69.84;98122.66;4971918;28;20035;-74
2021/04/25 02:05:20;;;;;;;8.52;5.00;;;;;;;7.68;69.67;98113.94;4971507;28;20491;-76
2021/04/25 02:07:46;;;;;;;9.20;5.38;;;;;;;7.64;69.37;98107.44;4974818;28;20114;-76
2021/04/25 02:10:12;;;;;;;9.82;5.63;;;;;;;7.57;69.85;98104.16;4980818;28;20499;-76
2021/04/25 02:12:38;;;;;;;9.80;5.50;;;;;;;7.54;70.23;98105.53;4984073;28;20022;-76
2021/04/25 02:15:06;;;;;;;11.10;5.78;;;;;;;7.53;70.49;98102.00;4990379;28;20038;-76
2021/04/25 02:17:32;;;;;;;10.68;4.95;;;;;;;7.52;70.46;98100.34;4990804;28;20030;-76
2021/04/25 02:19:57;;;;;;;11.15;5.40;;;;;;;7.54;70.46;98090.03;4991040;28;20446;-77
2021/04/25 02:22:23;;;;;;;10.20;4.88;;;;;;;7.45;70.62;98093.56;4989174;28;20512;-79
2021/04/25 02:24:49;;;;;;;9.15;6.15;;;;;;;7.58;70.54;98086.75;4988767;28;20030;-79
2021/04/25 02:27:14;;;;;;;10.95;5.10;;;;;;;7.43;70.88;98093.81;4972204;28;20500;-79
2021/04/25 02:29:40;;;;;;;10.70;5.78;;;;;;;7.37;71.45;98092.19;4974682;28;20022;-81
2021/04/25 02:32:05;;;;;;;8.95;5.22;;;;;;;7.40;71.41;98085.38;4990090;28;20041;-81
2021/04/25 02:34:32;;;;;;;11.18;5.35;;;;;;;7.16;72.46;98090.53;4995574;28;20037;-80
2021/04/25 02:36:57;;;;;;;12.30;6.10;;;;;;;6.91;73.58;98079.59;4995481;28;20061;-80
2021/04/25 02:39:22;;;;;;;12.63;7.10;;;;;;;7.07;73.48;98088.63;4995293;28;20062;-78
2021/04/25 02:41:48;;;;;;;;;;;;;;;7.03;73.34;98091.03;4997316;28;20026;-82
2021/04/25 02:44:13;;;;;;;13.30;7.18;;;;;;;6.80;74.33;98091.53;4996707;28;20361;-80
2021/04/25 02:46:39;;;;;;;12.23;8.02;;;;;;;6.65;75.02;98080.59;4986266;28;20075;-79
2021/04/25 02:49:04;;;;;;;;;;;;;;;6.68;75.24;98089.06;4976589;28;20074;-80
2021/04/25 02:51:29;;;;;;;12.88;7.25;;;;;;;6.65;75.01;98083.31;4994935;28;20000;-82
2021/04/25 02:53:55;;;;;;;11.45;6.65;;;;;;;6.55;75.41;98078.66;4995028;28;20034;-80
2021/04/25 02:56:20;;;;;;;11.23;7.65;;;;;;;6.61;75.29;98082.25;4995123;28;20117;-81
2021/04/25 02:58:45;;;;;;;;;;;;;;;6.58;75.49;98082.78;4994317;28;20022;-80
2021/04/25 03:01:11;;;;;;;13.50;8.18;;;;;;;6.59;75.41;98078.97;4995848;28;19917;-80
2021/04/25 03:03:36;;;;;;;;;;;;;;;6.74;74.79;98073.56;4997622;28;20427;-80
2021/04/25 03:06:02;;;;;;;11.93;7.35;;;;;;;6.69;74.52;98066.22;4997241;28;19913;-80
2021/04/25 03:08:27;;;;;;;;;;;;;;;6.89;74.02;98065.47;4997597;28;20038;-81
2021/04/25 03:10:52;;;;;;;14.63;7.03;;;;;;;6.71;74.33;98068.66;4997775;28;19914;-80
2021/04/25 03:13:18;;;;;;;;;;;;;;;6.55;75.18;98072.44;5002585;28;20062;-81
2021/04/25 03:15:43;;;;;;;8.27;6.68;;;;;;;6.61;74.25;98055.88;5000297;28;19996;-82
2021/04/25 03:18:09;;;;;;;11.43;7.15;;;;;;;6.45;74.75;98057.72;4994448;28;20093;-82
2021/04/25 03:20:35;;;;;;;13.38;6.60;;;;;;;6.33;75.38;98054.41;4993962;28;20038;-78
2021/04/25 03:23:00;;;;;;;;;;;;;;;6.30;75.92;98057.66;4993159;28;20027;-78
2021/04/25 03:25:25;;;;;;;9.75;6.43;;;;;;;6.30;75.86;98057.66;4992241;28;19987;-81
2021/04/25 03:27:52;;;;;;;8.88;7.13;;;;;;;6.40;75.36;98049.56;4992032;28;20039;-80
2021/04/25 03:30:19;;;;;;;8.88;6.82;;;;;;;6.58;74.85;98056.41;4993012;28;20059;-79
2021/04/25 03:32:47;;;;;;;10.13;6.72;;;;;;;6.54;75.20;98054.50;4994188;28;20058;-81
2021/04/25 03:35:15;;;;;;;11.13;6.38;;;;;;;6.50;75.43;98053.41;4994410;28;20022;-81
2021/04/25 03:37:41;;;;;;;10.80;6.97;;;;;;;6.47;75.25;98044.69;4994313;28;20387;-78
2021/04/25 03:40:09;;;;;;;12.20;7.22;;;;;;;6.20;76.20;98046.75;4995078;28;20033;-81
2021/04/25 03:42:35;;;;;;;11.05;7.47;;;;;;;6.25;76.28;98048.69;4998009;28;20645;-83
2021/04/25 03:45:01;;;;;;;12.23;6.78;;;;;;;6.19;76.76;98057.88;5000806;28;20099;-81
2021/04/25 03:47:26;;;;;;;13.57;7.05;;;;;;;6.13;77.13;98054.34;4997075;28;20030;-78
2021/04/25 03:49:51;;;;;;;;;;;;;;;5.98;77.98;98051.56;4995239;28;20033;-79
2021/04/25 03:52:17;;;;;;;9.65;6.43;;;;;;;6.08;77.82;98050.75;4994116;28;19959;-81
2021/04/25 03:54:42;;;;;;;;;;;;;;;6.20;76.90;98052.19;4994583;28;20470;-82
2021/04/25 03:57:07;;;;;;;11.50;7.78;;;;;;;6.04;77.19;98041.53;4993710;28;20324;-79
2021/04/25 03:59:33;;;;;;;;;;;;;;;6.22;76.77;98047.31;4994464;28;20041;-79
2021/04/25 04:01:59;;;;;;;13.13;7.55;;;;;;;6.14;76.94;98047.81;4978209;28;19910;-80
2021/04/25 04:04:24;;;;;;;16.65;7.47;;;;;;;6.11;77.30;98045.63;4974376;28;20117;-80
2021/04/25 04:06:49;;;;;;;11.77;6.72;;;;;;;6.09;77.38;98045.09;4974267;28;20145;-78
2021/04/25 04:09:17;;;;;;;13.00;6.50;;;;;;;6.34;76.70;98047.91;4974131;28;20114;-78
2021/04/25 04:11:43;;;;;;;11.52;6.80;;;;;;;6.42;76.54;98041.16;4979023;28;20042;-85
2021/04/25 04:14:12;;;;;;;9.88;6.65;;;;;;;6.30;76.86;98046.78;4973533;28;20034;-80
2021/04/25 04:16:38;;;;;;;9.43;6.03;;;;;;;6.19;77.18;98044.31;4974426;28;20419;-82
2021/04/25 04:19:04;;;;;;;11.90;6.90;;;;;;;6.23;77.42;98040.81;4972870;28;20054;-82
2021/04/25 04:21:29;;;;;;;10.57;6.57;;;;;;;6.21;77.56;98048.38;4973932;28;20394;-78
2021/04/25 04:23:55;;;;;;;;;;;;;;;6.22;77.86;98052.75;4988286;28;20030;-77
2021/04/25 04:26:21;;;;;;;14.32;6.85;;;;;;;6.35;77.18;98046.00;4993439;28;19914;-77
2021/04/25 04:28:46;;;;;;;13.38;6.63;;;;;;;6.47;76.91;98043.88;4992685;28;20050;-79
2021/04/25 04:31:12;;;;;;;12.50;6.00;;;;;;;6.42;76.54;98041.94;4992205;28;20445;-78
2021/04/25 04:33:38;;;;;;;11.85;6.30;;;;;;;6.40;76.49;98043.31;4993130;28;20022;-81
2021/04/25 04:36:04;;;;;;;7.95;5.47;;;;;;;6.40;76.33;98032.44;4992663;28;20108;-80
2021/04/25 04:38:29;;;;;;;7.38;5.80;;;;;;;6.54;76.22;98039.03;4991952;28;20030;-80
2021/04/25 04:40:56;;;;;;;9.25;6.75;;;;;;;6.52;75.88;98034.91;4992393;28;20390;-80
2021/04/25 04:43:22;;;;;;;13.38;6.35;;;;;;;6.54;76.05;98038.19;4991995;28;20042;-81
2021/04/25 04:45:47;;;;;;;12.38;6.28;;;;;;;6.73;75.68;98033.91;4992439;28;20041;-79
2021/04/25 04:48:13;;;;;;;;;;;;;;;6.69;75.88;98038.22;4993006;28;20505;-77
2021/04/25 04:50:38;;;;;;;8.45;5.82;;;;;;;6.80;75.41;98037.16;4992510;28;19918;-79
2021/04/25 04:53:03;;;;;;;11.10;6.25;;;;;;;7.15;74.32;98042.66;4992081;28;20069;-77
2021/04/25 04:55:29;;;;;;;10.27;6.45;;;;;;;7.13;73.57;98046.72;4990456;28;20023;-83
2021/04/25 04:57:54;;;;;;;9.98;6.15;;;;;;;7.16;73.34;98055.19;4991427;28;20027;-79
2021/04/25 05:00:20;;;;;;;12.25;6.00;;;;;;;7.34;72.68;98057.34;4992481;28;20165;-78
2021/04/25 05:02:45;;;;;;;14.90;8.88;;;;;;;7.40;72.35;98052.72;4992349;28;20052;-80
2021/04/25 05:05:11;;;;;;;9.63;6.85;;;;;;;7.57;71.59;98039.66;4992262;28;20023;-79
2021/04/25 05:07:36;;;;;;;13.63;6.05;;;;;;;8.02;70.40;98050.47;4992102;28;20037;-77
2021/04/25 05:10:03;;;;;;;9.57;6.30;;;;;;;7.96;70.46;98058.91;4992033;28;20069;-80
2021/04/25 05:12:29;;;;;;;11.38;6.78;;;;;;;8.37;69.00;98052.28;4992239;28;20037;-80
2021/04/25 05:14:57;;;;;;;15.07;6.60;;;;;;;8.33;69.21;98053.13;4974505;28;20031;-79
2021/04/25 05:17:23;;;;;;;12.00;6.82;;;;;;;8.26;68.83;98053.41;4972353;28;20018;-78
2021/04/25 05:19:48;;;;;;;12.63;7.82;;;;;;;8.14;69.11;98049.34;4972107;28;20078;-76
2021/04/25 05:22:14;;;;;;;34.33;16.85;;;;;;;8.20;69.59;98050.97;4977580;28;20061;-76
2021/04/25 05:24:39;;;;;;;17.45;9.70;;;;;;;8.21;69.49;98047.94;4991015;28;20026;-77
2021/04/25 05:27:05;;;;;;;19.35;11.40;;;;;;;8.24;69.44;98052.06;4990900;28;20085;-80
2021/04/25 05:29:30;;;;;;;10.35;6.15;;;;;;;8.32;68.30;98059.66;4989971;28;20872;-78
2021/04/25 05:31:56;;;;;;;9.05;6.28;;;;;;;8.45;68.50;98059.09;4991720;28;20022;-76
2021/04/25 05:34:21;;;;;;;11.23;6.68;;;;;;;8.75;68.03;98052.66;4990761;28;20038;-83
2021/04/25 05:36:47;;;;;;;13.57;6.70;;;;;;;8.77;68.05;98058.66;4989786;28;20030;-81
2021/04/25 05:39:12;;;;;;;8.82;6.30;;;;;;;8.94;66.61;98064.53;4991503;28;20084;-82
2021/04/25 05:41:38;;;;;;;9.88;6.75;;;;;;;8.85;65.97;98060.78;4991076;28;20042;-85
2021/04/25 05:44:04;;;;;;;9.93;6.18;;;;;;;9.10;65.75;98057.91;4990872;28;20026;-84
2021/04/25 05:46:30;;;;;;;10.90;6.75;;;;;;;8.98;66.11;98058.25;4991497;28;20061;-80
2021/04/25 05:48:55;;;;;;;12.57;6.80;;;;;;;9.06;65.58;98054.91;4990220;28;20077;-81
2021/04/25 05:51:21;;;;;;;10.30;6.28;;;;;;;9.42;64.75;98046.47;4991703;28;20061;-81
2021/04/25 05:53:47;;;;;;;12.23;5.57;;;;;;;10.05;62.39;98053.53;4991051;28;20034;-84
2021/04/25 05:56:12;;;;;;;10.63;6.30;;;;;;;10.33;61.19;98051.06;4989571;28;20022;-81
2021/04/25 05:58:38;;;;;;;8.02;6.47;;;;;;;10.74;59.74;98050.25;4991717;28;20065;-82
2021/04/25 06:01:04;;;;;;;13.32;6.35;;;;;;;10.70;60.10;98045.69;4991820;28;20466;-82
2021/04/25 06:03:29;;;;;;;10.07;5.68;;;;;;;10.71;59.59;98045.38;4991509;28;20039;-80
2021/04/25 06:05:55;;;;;;;11.02;6.28;;;;;;;10.70;59.73;98035.56;4991244;28;20037;-80
2021/04/25 06:08:20;;;;;;;11.48;6.90;;;;;;;10.66;59.86;98039.97;4991327;28;20073;-82
2021/04/25 06:10:46;;;;;;;9.10;6.93;;;;;;;10.73;59.58;98040.44;4991576;28;20022;-79
2021/04/25 06:13:11;;;;;;;8.23;5.53;;;;;;;10.83;59.19;98041.41;4991762;28;20062;-81
2021/04/25 06:15:37;;;;;;;10.80;6.47;;;;;;;11.06;58.57;98038.59;4990949;28;20034;-83
2021/04/25 06:18:03;;;;;;;11.05;5.65;;;;;;;10.69;59.39;98042.13;4991071;28;20046;-80
2021/04/25 06:20:30;;;;;;;14.38;7.65;;;;;;;10.56;60.08;98045.56;4991109;28;20026;-81
2021/04/25 06:22:56;;;;;;;9.20;6.20;;;;;;;10.57;59.67;98033.53;4990865;28;20042;-80
2021/04/25 06:25:21;;;;;;;10.38;7.00;;;;;;;10.79;59.42;98040.34;4989750;28;20026;-81
2021/04/25 06:27:48;;;;;;;13.38;7.43;;;;;;;10.75;59.60;98032.75;4991623;28;20109;-83
2021/04/25 06:30:14;;;;;;;16.13;7.93;;;;;;;10.75;59.19;98038.22;4991415;28;20038;-82
2021/04/25 06:32:40;;;;;;;9.85;6.60;;;;;;;10.90;59.24;98033.66;4986860;28;20078;-86
2021/04/25 06:35:07;;;;;;;12.30;7.70;;;;;;;11.04;58.88;98035.34;5009266;28;20879;-88
2021/04/25 06:37:32;;;;;;;11.30;7.53;;;;;;;11.07;58.60;98032.00;4976985;28;20027;-85
2021/04/25 06:39:58;;;;;;;13.25;8.57;;;;;;;11.13;58.19;98033.56;4982994;28;20109;-87
2021/04/25 06:42:23;;;;;;;11.70;6.82;;;;;;;11.11;58.05;98040.44;5001173;28;20431;-87
2021/04/25 06:44:49;;;;;;;11.13;6.50;;;;;;;10.84;58.99;98040.31;4976202;28;20515;-82
2021/04/25 06:47:15;;;;;;;12.65;6.82;;;;;;;11.05;58.52;98041.63;4990790;28;20027;-90
2021/04/25 06:49:42;;;;;;;12.00;7.63;;;;;;;11.31;57.88;98034.66;4988061;28;20054;-88
2021/04/25 06:52:11;;;;;;;12.63;8.43;;;;;;;11.20;58.34;98034.00;4990521;28;20018;-87
2021/04/25 06:54:37;;;;;;;11.52;7.63;;;;;;;11.38;57.80;98039.75;4991132;28;20082;-86
2021/04/25 06:57:02;;;;;;;13.88;7.60;;;;;;;11.40;57.74;98041.09;5001595;28;20354;-87
2021/04/25 06:59:27;;;;;;;13.63;7.03;;;;;;;11.58;58.08;98034.75;4989952;28;20022;-86
2021/04/25 07:01:55;;;;;;;11.18;6.85;;;;;;;11.91;56.50;98041.06;4992268;28;20506;-85
2021/04/25 07:04:26;;;;;;;9.07;6.55;;;;;;;12.21;55.64;98037.75;4988039;28;20057;-87
2021/04/25 07:06:53;;;;;;;11.63;5.80;;;;;;;13.04;53.09;98036.56;4990812;28;20038;-87
2021/04/25 07:09:18;;;;;;;11.07;7.38;;;;;;;13.68;51.60;98037.25;4994852;28;20011;-85
2021/04/25 07:11:46;;;;;;;10.13;5.55;;;;;;;14.63;48.52;98030.31;4986387;28;20121;-82
2021/04/25 07:14:12;;;;;;;11.07;6.15;;;;;;;14.47;48.88;98025.22;4980887;28;20034;-78
2021/04/25 07:16:40;;;;;;;7.78;5.60;;;;;;;14.39;49.01;98042.53;4978165;28;20026;-83
2021/04/25 07:19:05;;;;;;;11.18;5.50;;;;;;;14.86;47.67;98051.91;4982928;28;20397;-75
2021/04/25 07:21:33;;;;;;;9.52;6.05;;;;;;;14.22;48.42;98047.13;4981428;28;20035;-76
2021/04/25 07:23:59;;;;;;;9.23;5.03;;;;;;;14.84;47.56;98048.69;4981238;28;20121;-76
2021/04/25 07:26:24;;;;;;;7.18;4.72;;;;;;;14.42;47.96;98035.56;4979208;28;20037;-75
2021/04/25 07:28:50;;;;;;;7.82;6.57;;;;;;;14.36;48.50;98039.59;4978336;28;20074;-77
2021/04/25 07:31:15;;;;;;;9.30;5.45;;;;;;;14.26;48.86;98037.09;4979232;28;20787;-78
2021/04/25 07:33:40;;;;;;;9.57;6.43;;;;;;;14.26;48.49;98031.59;4981723;28;20113;-76
2021/04/25 07:36:09;;;;;;;7.97;5.82;;;;;;;14.58;47.78;98027.69;4980095;28;20479;-76
2021/04/25 07:38:39;;;;;;;10.52;5.18;;;;;;;14.51;48.06;98030.91;4981617;28;20034;-75
2021/04/25 07:41:06;;;;;;;8.52;5.72;;;;;;;14.74;49.00;98032.44;4978509;28;20030;-75
2021/04/25 07:43:34;;;;;;;14.63;5.80;;;;;;;15.30;46.62;98039.00;4982087;28;20026;-76
2021/04/25 07:46:00;;;;;;;9.77;4.32;;;;;;;16.26;44.45;98025.56;4989109;28;20029;-76
2021/04/25 07:48:26;;;;;;;20.50;5.15;;;;;;;17.02;42.02;98040.16;4986192;28;20034;-76
2021/04/25 07:50:52;;;;;;;7.50;4.35;;;;;;;18.67;38.86;98043.81;4992158;28;20061;-75
2021/04/25 07:53:17;;;;;;;8.38;5.00;;;;;;;16.97;41.36;98037.59;4986036;28;20944;-75
2021/04/25 07:55:44;;;;;;;7.05;4.68;;;;;;;16.88;41.74;98039.59;4981727;28;20080;-75
2021/04/25 07:58:09;;;;;;;6.28;4.70;;;;;;;17.21;40.97;98041.66;4982605;28;20475;-75
2021/04/25 08:00:36;;;;;;;8.30;5.60;;;;;;;18.15;39.40;98027.78;4979057;28;20049;-77
2021/04/25 08:03:02;;;;;;;7.88;4.53;;;;;;;19.16;37.55;98033.50;4986547;28;20021;-73
2021/04/25 08:05:28;;;;;;;8.95;4.57;;;;;;;19.01;36.48;98031.47;4982411;28;20031;-75
2021/04/25 08:07:53;;;;;;;10.65;4.88;;;;;;;19.31;36.53;98029.19;4976807;28;20034;-77
2021/04/25 08:10:19;;;;;;;10.85;5.70;;;;;;;19.75;34.80;98019.84;4983655;28;20022;-74
2021/04/25 08:12:44;;;;;;;10.65;4.88;;;;;;;19.77;34.62;98025.81;4980307;28;20130;-77
2021/04/25 08:15:10;;;;;;;13.35;5.28;;;;;;;19.35;34.61;98011.50;4981283;28;20058;-76
2021/04/25 08:17:36;;;;;;;8.70;4.45;;;;;;;20.64;32.76;98021.03;4984318;28;20474;-77
2021/04/25 08:20:04;;;;;;;12.07;4.63;;;;;;;20.18;32.74;98017.06;4980331;28;20061;-75
2021/04/25 08:22:29;;;;;;;7.88;4.53;;;;;;;19.91;33.32;98023.47;4981075;28;20505;-78
2021/04/25 08:24:55;;;;;;;5.05;3.78;;;;;;;20.24;33.38;98015.63;4981848;28;20053;-76
2021/04/25 08:27:20;;;;;;;7.20;4.40;;;;;;;21.45;30.66;98026.94;4980240;28;20523;-75
2021/04/25 08:29:46;;;;;;;6.90;4.43;;;;;;;20.83;31.49;98017.56;4980880;28;20529;-77
2021/04/25 08:32:11;;;;;;;6.20;4.38;;;;;;;22.53;29.37;98023.91;4981125;28;20844;-76
2021/04/25 08:34:37;;;;;;;7.32;4.07;;;;;;;21.63;30.47;98011.41;4982103;28;20101;-77
2021/04/25 08:37:02;;;;;;;8.23;4.68;;;;;;;21.74;30.72;98007.66;4978780;28;20022;-78
2021/04/25 08:39:27;;;;;;;9.63;4.90;;;;;;;21.46;31.68;98011.84;4978859;28;20506;-75
2021/04/25 08:41:55;;;;;;;9.98;4.88;;;;;;;21.99;30.51;98018.53;4982427;28;20028;-74
2021/04/25 08:44:21;;;;;;;8.40;3.60;;;;;;;21.65;30.60;98014.63;4978275;28;20133;-79
2021/04/25 08:46:48;;;;;;;6.22;4.13;;;;;;;23.03;28.68;98009.63;4979328;28;20027;-79
2021/04/25 08:49:21;;;;;;;9.45;4.38;;;;;;;22.84;28.83;98009.72;4981794;28;20349;-82
2021/04/25 08:51:47;;;;;;;10.20;4.18;;;;;;;21.98;29.87;98011.34;4986711;28;20062;-78
2021/04/25 08:54:14;;;;;;;11.07;4.03;;;;;;;23.15;28.56;97997.44;4987356;28;20054;-79
2021/04/25 08:56:40;;;;;;;10.65;3.85;;;;;;;22.55;28.91;97993.69;4977212;28;20030;-76
2021/04/25 08:59:06;;;;;;;8.85;4.07;;;;;;;22.67;29.32;97993.50;4974162;28;20445;-78
2021/04/25 09:01:31;;;;;;;7.70;3.90;;;;;;;23.52;27.46;98005.97;4981274;28;20049;-78
2021/04/25 09:03:56;;;;;;;13.85;4.85;;;;;;;23.52;27.25;97995.59;4983327;28;20026;-78
2021/04/25 09:06:22;;;;;;;9.05;3.83;;;;;;;24.00;25.83;97993.75;4979305;28;20031;-79
2021/04/25 09:08:56;;;;;;;7.70;3.40;;;;;;;24.03;26.32;97997.81;4979673;28;20022;-78
2021/04/25 09:11:41;;;;;;;7.18;3.28;;;;;;;23.57;25.05;97981.28;4980598;28;20019;-77
2021/04/25 09:14:22;;;;;;;4.32;2.97;;;;;;;24.02;24.60;97987.81;4978030;28;20371;-78
2021/04/25 09:17:01;;;;;;;5.70;2.92;;;;;;;22.70;25.01;97981.59;4979635;28;20422;-78
2021/04/25 09:19:55;;;;;;;10.27;2.58;;;;;;;22.37;25.11;97982.19;4979733;28;20078;-77
2021/04/25 09:22:23;;;;;;;6.50;3.33;;;;;;;23.56;24.29;97979.66;4990757;28;20526;-77
2021/04/25 09:24:49;;;;;;;4.50;2.95;;;;;;;22.62;25.46;97969.47;4992813;28;20113;-77
2021/04/25 09:27:28;;;;;;;4.38;2.38;;;;;;;21.42;27.31;97969.22;4980878;28;20133;-79
2021/04/25 09:29:59;;;;;;;7.18;3.25;;;;;;;21.37;28.10;97961.94;4977068;28;20055;-76
2021/04/25 09:32:26;;;;;;;5.38;2.88;;;;;;;21.59;27.41;97958.44;4979965;28;20018;-78
2021/04/25 09:35:16;;;;;;;6.80;2.78;;;;;;;22.21;26.98;97937.72;4981967;28;20037;-78
2021/04/25 09:37:47;;;;;;;6.38;2.83;;;;;;;23.54;25.70;97942.13;4979001;28;20035;-76
2021/04/25 09:40:17;;;;;;;6.32;2.78;;;;;;;22.84;25.87;97934.38;4979594;28;20026;-78
2021/04/25 09:42:59;;;;;;;5.85;2.47;;;;;;;23.41;25.44;97922.84;4977140;28;20048;-78
2021/04/25 09:45:49;;;;;;;6.03;2.70;;;;;;;22.80;26.76;97917.63;5002708;28;20498;-77
2021/04/25 09:48:28;;;;;;;9.93;3.42;;;;;;;22.50;27.28;97910.31;4969431;28;20408;-78
2021/04/25 09:51:17;;;;;;;7.15;2.60;;;;;;;22.10;27.55;97908.06;4977209;28;20031;-78
2021/04/25 09:53:59;;;;;;;6.03;2.42;;;;;;;22.43;27.24;97894.28;4977753;28;20053;-78
2021/04/25 09:56:30;;;;;;;6.53;2.58;;;;;;;22.24;27.88;97897.97;4978513;28;20538;-76
2021/04/25 09:58:56;;;;;;;6.05;2.72;;;;;;;21.81;28.57;97888.03;4977820;28;20419;-78
2021/04/25 10:01:26;;;;;;;5.30;2.45;;;;;;;22.04;28.45;97890.06;4978547;28;20061;-78
2021/04/25 10:03:52;;;;;;;18.15;2.97;;;;;;;22.83;26.95;97880.59;4978274;28;20027;-77
2021/04/25 10:06:19;;;;;;;4.65;3.22;;;;;;;22.87;26.46;97886.19;4979925;28;20041;-85
2021/04/25 10:08:49;;;;;;;6.90;3.53;;;;;;;23.11;26.60;97880.16;4984453;28;20080;-77
2021/04/25 10:11:15;;;;;;;5.72;2.85;;;;;;;24.51;25.33;97874.44;4976709;28;20023;-78
2021/04/25 10:13:47;;;;;;;5.75;3.05;;;;;;;25.28;24.78;97866.91;4976827;28;20029;-77
2021/04/25 10:16:18;;;;;;;5.97;3.72;;;;;;;24.75;24.82;97872.97;4976757;28;20118;-80
2021/04/25 10:18:44;;;;;;;8.07;2.33;;;;;;;24.94;24.84;97857.91;4975051;28;20093;-78
2021/04/25 10:21:10;;;;;;;6.93;3.53;;;;;;;24.15;25.72;97850.16;4978428;28;20041;-78
2021/04/25 10:23:36;;;;;;;8.35;2.38;;;;;;;24.28;25.95;97854.28;4976385;28;20010;-78
2021/04/25 10:26:08;;;;;;;4.13;2.53;;;;;;;23.85;26.43;97857.88;4976525;28;20088;-79
2021/04/25 10:28:39;;;;;;;5.90;2.40;;;;;;;23.45;26.94;97856.69;4977166;28;20034;-78
2021/04/25 10:31:10;;;;;;;3.97;2.47;;;;;;;24.57;25.67;97849.69;4977758;28;20027;-77
2021/04/25 10:34:00;;;;;;;4.90;2.78;;;;;;;23.83;25.97;97851.88;4978582;28;20131;-79
2021/04/25 10:36:50;;;;;;;3.17;2.45;;;;;;;25.68;24.00;97849.84;4976994;28;20043;-78
2021/04/25 10:39:46;;;;;;;6.65;2.72;;;;;;;26.33;23.20;97846.69;4981258;28;20405;-78
2021/04/25 10:45:04;;;;;;;9.20;3.30;;;;;;;22.97;26.54;97828.94;4976608;28;20027;-75
2021/04/25 10:47:30;;;;;;;4.28;2.40;;;;;;;22.53;27.71;97826.72;4967879;28;20041;-77
2021/04/25 10:49:59;;;;;;;3.85;2.60;;;;;;;22.48;27.71;97829.03;4976045;28;20037;-76
2021/04/25 10:52:26;;;;;;;6.50;3.35;;;;;;;22.14;28.08;97825.34;4978786;28;20117;-75
2021/04/25 11:00:51;;;;;;;4.10;2.60;;;;;;;22.19;27.70;97822.22;4984742;28;20037;-76
2021/04/25 11:03:18;;;;;;;7.07;2.65;;;;;;;21.41;28.92;97814.50;4983974;28;20780;-79
2021/04/25 11:05:49;;;;;;;9.02;3.83;;;;;;;21.57;28.89;97810.44;4982690;28;20398;-78
2021/04/25 11:08:15;;;;;;;5.75;2.42;;;;;;;21.61;28.77;97805.75;4982054;28;20031;-77
2021/04/25 11:10:50;;;;;;;3.83;2.03;;;;;;;21.20;28.83;97795.44;4981181;28;20652;-80
2021/04/25 11:13:34;;;;;;;8.02;3.15;;;;;;;20.84;28.56;97805.81;4981830;28;20032;-77
2021/04/25 11:16:05;;;;;;;6.90;3.08;;;;;;;20.99;28.56;97803.34;4980959;28;20025;-78
2021/04/25 11:19:05;;;;;;;8.68;2.80;;;;;;;20.73;27.79;97798.44;4982231;28;20742;-79
2021/04/25 11:24:02;;;;;;;8.90;2.22;;;;;;;20.90;26.83;97798.00;4983096;28;20023;-79
2021/04/25 11:26:43;;;;;;;4.47;2.47;;;;;;;20.69;25.97;97789.22;5008248;28;20030;-76
2021/04/25 11:29:42;;;;;;;3.55;1.88;;;;;;;20.77;26.15;97785.41;4997688;28;20086;-86
2021/04/25 11:32:23;;;;;;;8.60;2.85;;;;;;;21.05;24.36;97779.63;4973833;28;20031;-86
2021/04/25 11:34:59;;;;;;;2.28;1.88;;;;;;;21.06;23.97;97776.47;5000847;28;20053;-86
2021/04/25 11:37:26;;;;;;;5.90;2.47;;;;;;;21.55;22.13;97781.38;5016587;28;20029;-81
2021/04/25 11:40:06;;;;;;;3.50;1.67;;;;;;;21.76;20.82;97773.38;5012882;28;20108;-80
2021/04/25 11:42:39;;;;;;;3.38;1.42;;;;;;;22.05;20.92;97778.25;5015159;28;20077;-80
2021/04/25 11:45:12;;;;;;;5.25;1.75;;;;;;;22.29;21.04;97768.63;4993454;28;20043;-77
2021/04/25 11:47:49;;;;;;;3.10;2.58;;;;;;;22.18;21.06;97770.44;4990461;28;20052;-78
2021/04/25 11:50:17;;;;;;;5.32;2.20;;;;;;;22.33;20.77;97766.72;4993747;28;20031;-86